Time;durP1;ratioP1;P1;durP2;ratioP2;P2;SDS_P1;SDS_P2;PMS_P1;PMS_P2;Temp;Humidity;BMP_temperature;BMP_pressure;BME280_temperature;BME280_humidity;BME280_pressure;Samples;Min_cycle;Max_cycle;Signal;HPM_P1;HPM_P2
2022/06/22 00:01:42;;;;;;;;;;;13.80;99.90;;;;;;5094002;27;19962;-78
2022/06/22 00:04:14;;;;;;;;;;;13.80;99.90;;;;;;5098653;27;20380;-78
2022/06/22 00:06:41;;;;;;;;;;;13.90;99.90;;;;;;5088001;27;19943;-78
2022/06/22 00:09:14;;;;;;;;;;;13.80;99.90;;;;;;5090832;27;19964;-78
2022/06/22 00:11:43;;;;;;;;;;;13.70;99.90;;;;;;5096522;27;19931;-78
2022/06/22 00:14:16;;;;;;;;;;;13.60;99.90;;;;;;5103003;27;20424;-78
2022/06/22 00:16:47;;;;;;;;;;;13.60;99.90;;;;;;5100680;27;19951;-78
2022/06/22 00:19:21;;;;;;;;;;;13.60;99.90;;;;;;5100506;27;19934;-78
2022/06/22 00:21:48;;;;;;;;;;;13.70;99.90;;;;;;5097178;28;20611;-78
2022/06/22 00:24:23;;;;;;;;;;;13.60;99.90;;;;;;5099746;28;19924;-78
2022/06/22 00:27:07;;;;;;;;;;;13.60;99.90;;;;;;5093334;28;19932;-78
2022/06/22 00:29:35;;;;;;;;;;;13.50;99.90;;;;;;5093766;28;19927;-78
2022/06/22 00:32:35;;;;;;;;;;;13.50;99.90;;;;;;5098813;28;20308;-78
2022/06/22 00:35:19;;;;;;;;;;;13.40;99.90;;;;;;4995217;28;19930;-78
2022/06/22 00:37:45;;;;;;;;;;;13.50;99.90;;;;;;5089630;28;19984;-78
2022/06/22 00:40:15;;;;;;;;;;;13.40;99.90;;;;;;5096650;27;20401;-78
2022/06/22 00:42:43;;;;;;;;;;;13.30;99.90;;;;;;5102148;27;19928;-78
2022/06/22 00:45:10;;;;;;;;;;;13.20;99.90;;;;;;5103783;27;20288;-78
2022/06/22 00:47:47;;;;;;;;;;;13.20;99.90;;;;;;5105318;27;19988;-78
2022/06/22 00:50:18;;;;;;;;;;;13.20;99.90;;;;;;5107682;27;19928;-78
2022/06/22 00:52:45;;;;;;;;;;;13.20;99.90;;;;;;5102642;27;19934;-78
2022/06/22 00:55:31;;;;;;;;;;;13.10;99.90;;;;;;5103589;27;19928;-78
2022/06/22 00:58:02;;;;;;;;;;;13.20;99.90;;;;;;5103025;27;20670;-78
2022/06/22 01:00:30;;;;;;;;;;;13.00;99.90;;;;;;5100188;27;19931;-79
2022/06/22 01:02:58;;;;;;;;;;;13.00;99.90;;;;;;5101611;27;19932;-78
2022/06/22 01:05:31;;;;;;;;;;;13.10;99.90;;;;;;5101372;27;20010;-78
2022/06/22 01:08:15;;;;;;;;;;;13.10;99.90;;;;;;5100034;27;19928;-79
2022/06/22 01:10:44;;;;;;;;;;;13.00;99.90;;;;;;5100891;27;19934;-78
2022/06/22 01:13:36;;;;;;;;;;;12.90;99.90;;;;;;5102941;27;19928;-78
2022/06/22 01:16:03;;;;;;;;;;;12.90;99.90;;;;;;5099822;27;19955;-79
2022/06/22 01:18:32;;;;;;;;;;;12.80;99.90;;;;;;5101490;27;19934;-78
2022/06/22 01:21:01;;;;;;;;;;;12.90;99.90;;;;;;5105113;27;21022;-78
2022/06/22 01:23:45;;;;;;;;;;;12.70;99.90;;;;;;5098917;27;19974;-78
2022/06/22 01:26:23;;;;;;;;;;;12.50;99.90;;;;;;5096407;27;19988;-78
2022/06/22 01:28:53;;;;;;;;;;;12.40;99.90;;;;;;5102982;27;19931;-78
2022/06/22 01:31:18;;;;;;;;;;;12.40;99.90;;;;;;5103651;27;20502;-78
2022/06/22 01:33:47;;;;;;;;;;;12.50;99.90;;;;;;5101152;27;19927;-79
2022/06/22 01:36:17;;;;;;;;;;;12.40;99.90;;;;;;5102728;27;19927;-78
2022/06/22 01:38:42;;;;;;;;;;;12.40;99.90;;;;;;5094745;27;19956;-78
2022/06/22 01:41:26;;;;;;;;;;;12.40;99.90;;;;;;5099869;27;19928;-78
2022/06/22 01:44:01;;;;;;;;;;;12.30;99.90;;;;;;5109466;27;19929;-78
2022/06/22 01:46:37;;;;;;;;;;;12.20;99.90;;;;;;5102597;27;19927;-79
2022/06/22 01:49:21;;;;;;;;;;;12.10;99.90;;;;;;5098334;27;20014;-78
2022/06/22 01:51:58;;;;;;;;;;;12.10;99.90;;;;;;5095133;27;19927;-79
2022/06/22 01:54:24;;;;;;;;;;;12.30;99.90;;;;;;5080642;27;19942;-79
2022/06/22 01:57:06;;;;;;;;;;;12.40;99.90;;;;;;5081166;27;19955;-79
2022/06/22 01:59:31;;;;;;;;;;;12.30;99.90;;;;;;5098217;27;19932;-78
2022/06/22 02:02:08;;;;;;;;;;;12.00;99.90;;;;;;5095957;27;20563;-78
2022/06/22 02:04:43;;;;;;;;;;;12.20;99.90;;;;;;5099249;27;19939;-78
2022/06/22 02:09:58;;;;;;;;;;;12.10;99.90;;;;;;5098698;27;20010;-78
2022/06/22 02:12:28;;;;;;;;;;;12.10;99.90;;;;;;5099401;27;20144;-78
2022/06/22 02:15:02;;;;;;;;;;;12.10;99.90;;;;;;5102988;27;19931;-78
2022/06/22 02:17:28;;;;;;;;;;;12.10;99.90;;;;;;5106044;27;19928;-78
2022/06/22 02:20:13;;;;;;;;;;;12.00;99.90;;;;;;5103571;27;20623;-79
2022/06/22 02:22:38;;;;;;;;;;;12.00;99.90;;;;;;5098959;27;19963;-78
2022/06/22 02:25:05;;;;;;;;;;;12.00;99.90;;;;;;5100465;27;20006;-78
2022/06/22 02:27:31;;;;;;;;;;;12.00;99.90;;;;;;5099284;27;19931;-78
2022/06/22 02:29:58;;;;;;;;;;;12.00;99.90;;;;;;5104719;27;19930;-78
2022/06/22 02:32:27;;;;;;;;;;;11.90;99.90;;;;;;5108615;27;19927;-79
2022/06/22 02:34:55;;;;;;;;;;;11.90;99.90;;;;;;5101728;27;20653;-78
2022/06/22 02:37:22;;;;;;;;;;;11.80;99.90;;;;;;5099651;27;19932;-79
2022/06/22 02:39:50;;;;;;;;;;;11.90;99.90;;;;;;5102159;27;20015;-78
2022/06/22 02:45:00;;;;;;;;;;;11.80;99.90;;;;;;5100644;27;20929;-78
2022/06/22 02:47:29;;;;;;;;;;;11.80;99.90;;;;;;5101473;27;20334;-79
2022/06/22 02:50:13;;;;;;;;;;;11.70;99.90;;;;;;5098266;27;19928;-79
2022/06/22 02:52:51;;;;;;;;;;;11.50;99.90;;;;;;5098678;27;20027;-78
2022/06/22 02:55:18;;;;;;;;;;;11.30;99.90;;;;;;5092375;27;19930;-78
2022/06/22 02:57:46;;;;;;;;;;;11.30;99.90;;;;;;5092152;27;19928;-78
2022/06/22 03:00:13;;;;;;;;;;;11.20;99.90;;;;;;5089522;27;20285;-78
2022/06/22 03:02:41;;;;;;;;;;;11.20;99.90;;;;;;5090707;27;19928;-79
2022/06/22 03:05:07;;;;;;;;;;;11.10;99.90;;;;;;5092984;27;19932;-79
2022/06/22 03:07:37;;;;;;;;;;;11.00;99.90;;;;;;5092567;27;19927;-78
2022/06/22 03:10:04;;;;;;;;;;;11.00;99.90;;;;;;5091150;27;19931;-78
2022/06/22 03:12:29;;;;;;;;;;;11.10;99.90;;;;;;5092610;27;20661;-79
2022/06/22 03:14:57;;;;;;;;;;;11.20;99.90;;;;;;5090230;27;19931;-79
2022/06/22 03:17:30;;;;;;;;;;;11.20;99.90;;;;;;5089439;27;19927;-78
2022/06/22 03:20:01;;;;;;;;;;;11.30;99.90;;;;;;5088364;27;19934;-79
2022/06/22 03:22:34;;;;;;;;;;;11.30;99.90;;;;;;5087768;27;19933;-79
2022/06/22 03:25:05;;;;;;;;;;;11.20;99.90;;;;;;5094578;27;19931;-79
2022/06/22 03:27:34;;;;;;;;;;;11.00;99.90;;;;;;5091356;27;19935;-79
2022/06/22 03:30:01;;;;;;;;;;;10.80;99.90;;;;;;5091316;27;19984;-79
2022/06/22 03:32:27;;;;;;;;;;;10.90;99.90;;;;;;5088780;27;19957;-78
2022/06/22 03:35:04;;;;;;;;;;;11.00;99.90;;;;;;5089511;27;19939;-78
2022/06/22 03:37:30;;;;;;;;;;;11.00;99.90;;;;;;5088782;27;19932;-78
2022/06/22 03:39:58;;;;;;;;;;;11.20;99.90;;;;;;5091469;27;19950;-78
2022/06/22 03:42:30;;;;;;;;;;;11.30;99.90;;;;;;5092579;27;21182;-78
2022/06/22 03:45:09;;;;;;;;;;;11.20;99.90;;;;;;5087089;27;19932;-78
2022/06/22 03:47:37;;;;;;;;;;;10.90;99.90;;;;;;5090332;27;19931;-79
2022/06/22 03:50:11;;;;;;;;;;;10.90;99.90;;;;;;5088406;27;20049;-78
2022/06/22 03:52:37;;;;;;;;;;;10.70;99.90;;;;;;5071594;27;19989;-78
2022/06/22 03:55:17;;;;;;;;;;;10.80;99.90;;;;;;5072993;27;20392;-78
2022/06/22 03:57:45;;;;;;;;;;;11.00;99.90;;;;;;5100157;27;19928;-78
2022/06/22 04:00:12;;;;;;;;;;;11.20;99.90;;;;;;5092661;27;19946;-78
2022/06/22 04:02:38;;;;;;;;;;;11.30;99.90;;;;;;5087909;27;19924;-78
2022/06/22 04:05:04;;;;;;;;;;;11.40;99.90;;;;;;5089387;27;19927;-78
2022/06/22 04:07:33;;;;;;;;;;;11.40;99.90;;;;;;5092740;27;19932;-78
2022/06/22 04:09:58;;;;;;;;;;;11.40;99.90;;;;;;5091302;27;19927;-78
2022/06/22 04:12:31;;;;;;;;;;;11.50;99.90;;;;;;5094803;27;19927;-79
2022/06/22 04:15:15;;;;;;;;;;;11.50;99.90;;;;;;5090285;27;20342;-79
2022/06/22 04:17:44;;;;;;;;;;;11.60;99.90;;;;;;5090832;27;19932;-79
2022/06/22 04:20:22;;;;;;;;;;;11.60;99.90;;;;;;5094111;27;19928;-79
2022/06/22 04:22:53;;;;;;;;;;;11.80;99.90;;;;;;5093288;27;19957;-79
2022/06/22 04:25:19;;;;;;;;;;;11.80;99.90;;;;;;5091888;28;19939;-78
2022/06/22 04:27:48;;;;;;;;;;;11.80;99.90;;;;;;5086453;28;19927;-78
2022/06/22 04:30:18;;;;;;;;;;;11.90;99.90;;;;;;5088257;28;20679;-78
2022/06/22 04:32:46;;;;;;;;;;;11.90;99.90;;;;;;5071347;28;19928;-80
2022/06/22 04:35:14;;;;;;;;;;;12.00;99.90;;;;;;5077982;28;19927;-78
2022/06/22 04:37:42;;;;;;;;;;;12.00;99.90;;;;;;5071074;28;19971;-78
2022/06/22 04:40:17;;;;;;;;;;;12.20;99.90;;;;;;5061262;28;19931;-79
2022/06/22 04:42:43;;;;;;;;;;;12.40;99.90;;;;;;5061113;28;20530;-78
2022/06/22 04:45:22;;;;;;;;;;;14.80;99.90;;;;;;5063268;28;19935;-80
2022/06/22 04:47:47;;;;;;;;;;;16.70;99.90;;;;;;5063451;28;19977;-80
2022/06/22 04:50:13;;;;;;;;;;;18.30;99.90;;;;;;5063737;28;20046;-80
2022/06/22 04:52:43;;;;;;;;;;;19.40;99.90;;;;;;5066171;27;19953;-80
2022/06/22 04:55:13;;;;;;;;;;;20.00;99.90;;;;;;5063738;28;20025;-82
2022/06/22 04:57:39;;;;;;;;;;;20.80;99.90;;;;;;5066013;28;19931;-79
2022/06/22 05:00:13;;;;;;;;;;;21.70;99.90;;;;;;5064308;28;19936;-79
2022/06/22 05:02:40;;;;;;;;;;;22.30;99.90;;;;;;5065802;28;19928;-80
2022/06/22 05:05:26;;;;;;;;;;;22.80;99.90;;;;;;5059110;28;19993;-79
2022/06/22 05:07:54;;;;;;;;;;;23.20;99.90;;;;;;5070927;28;19947;-80
2022/06/22 05:10:28;;;;;;;;;;;23.50;99.90;;;;;;5066399;28;19928;-80
2022/06/22 05:12:58;;;;;;;;;;;23.60;99.90;;;;;;5065987;28;19932;-79
2022/06/22 05:15:27;;;;;;;;;;;24.20;99.90;;;;;;5077208;27;19950;-79
2022/06/22 05:17:53;;;;;;;;;;;24.70;99.90;;;;;;5083797;28;19961;-79
2022/06/22 05:20:18;;;;;;;;;;;25.00;99.90;;;;;;5094341;28;20214;-79
2022/06/22 05:22:45;;;;;;;;;;;25.50;99.90;;;;;;5097056;28;20461;-79
2022/06/22 05:25:13;;;;;;;;;;;25.50;99.90;;;;;;5086911;27;19927;-79
2022/06/22 05:28:00;;;;;;;;;;;25.30;99.90;;;;;;5100716;27;20023;-80
2022/06/22 05:30:28;;;;;;;;;;;25.40;99.90;;;;;;5109103;27;20783;-80
2022/06/22 05:32:55;;;;;;;;;;;25.40;99.90;;;;;;5096273;27;19952;-81
2022/06/22 05:35:27;;;;;;;;;;;25.30;99.90;;;;;;5099596;27;19931;-80
2022/06/22 05:37:54;;;;;;;;;;;25.50;99.90;;;;;;5105778;27;19928;-80
2022/06/22 05:40:21;;;;;;;;;;;25.40;99.90;;;;;;5103835;27;19931;-81
2022/06/22 05:42:46;;;;;;;;;;;25.60;99.90;;;;;;5108071;27;19923;-80
2022/06/22 05:45:17;;;;;;;;;;;25.50;99.90;;;;;;5103806;27;19938;-79
2022/06/22 05:47:44;;;;;;;;;;;25.10;99.90;;;;;;5100419;27;19923;-80
2022/06/22 05:50:36;;;;;;;;;;;23.00;99.90;;;;;;5106297;27;19924;-80
2022/06/22 05:53:15;;;;;;;;;;;22.20;99.90;;;;;;5090416;27;20015;-80
2022/06/22 05:55:56;;;;;;;;;;;21.60;99.90;;;;;;5097073;27;19931;-80
2022/06/22 05:58:29;;;;;;;;;;;21.80;99.90;;;;;;5103421;27;20459;-79
2022/06/22 06:00:57;;;;;;;;;;;21.40;99.90;;;;;;5104896;27;19931;-80
2022/06/22 06:03:23;;;;;;;;;;;21.10;99.90;;;;;;5097291;27;19997;-79
2022/06/22 06:05:50;;;;;;;;;;;21.50;99.90;;;;;;5103630;27;20899;-80
2022/06/22 06:08:21;;;;;;;;;;;20.90;99.90;;;;;;5098103;27;21620;-80
2022/06/22 06:10:47;;;;;;;;;;;21.50;99.90;;;;;;5069753;27;19934;-80
2022/06/22 06:13:15;;;;;;;;;;;21.50;99.90;;;;;;5103154;27;19928;-80
2022/06/22 06:15:41;;;;;;;;;;;21.70;99.90;;;;;;5100814;27;19996;-81
2022/06/22 06:18:11;;;;;;;;;;;21.40;99.90;;;;;;5103219;27;20553;-79
2022/06/22 06:20:39;;;;;;;;;;;21.40;99.90;;;;;;5096573;27;20569;-80
2022/06/22 06:23:10;;;;;;;;;;;21.70;99.90;;;;;;5100369;27;19927;-81
2022/06/22 06:28:27;;;;;;;;;;;21.60;99.90;;;;;;5103795;27;20471;-79
2022/06/22 06:30:57;;;;;;;;;;;21.40;99.90;;;;;;5103648;27;19935;-79
2022/06/22 06:33:32;;;;;;;;;;;21.40;99.90;;;;;;5099620;27;20080;-79
2022/06/22 06:35:58;;;;;;;;;;;22.40;99.90;;;;;;5101164;27;19957;-80
2022/06/22 06:38:27;;;;;;;;;;;21.50;99.90;;;;;;5107196;27;19980;-81
2022/06/22 06:41:02;;;;;;;;;;;22.10;99.90;;;;;;5102412;27;20113;-80
2022/06/22 06:43:46;;;;;;;;;;;21.90;99.90;;;;;;5077143;27;19935;-79
2022/06/22 06:46:19;;;;;;;;;;;21.70;99.90;;;;;;5103749;27;20018;-79
2022/06/22 06:48:47;;;;;;;;;;;22.10;99.90;;;;;;5095923;27;19935;-79
2022/06/22 06:51:15;;;;;;;;;;;21.50;99.90;;;;;;5095417;27;19931;-79
2022/06/22 06:53:49;;;;;;;;;;;22.20;99.90;;;;;;5094816;27;19958;-80
2022/06/22 06:56:24;;;;;;;;;;;22.10;99.90;;;;;;5102477;27;19923;-80
2022/06/22 06:58:49;;;;;;;;;;;21.90;99.90;;;;;;5104836;27;19928;-80
2022/06/22 07:01:20;;;;;;;;;;;22.10;99.90;;;;;;5098744;27;19934;-80
2022/06/22 07:03:46;;;;;;;;;;;22.10;99.90;;;;;;5103451;27;19937;-80
2022/06/22 07:06:12;;;;;;;;;;;21.60;99.90;;;;;;5101676;27;20125;-80
2022/06/22 07:08:41;;;;;;;;;;;22.30;99.90;;;;;;5083836;27;20401;-80
2022/06/22 07:11:17;;;;;;;;;;;22.50;99.90;;;;;;5103343;27;19931;-80
2022/06/22 07:13:53;;;;;;;;;;;22.30;99.90;;;;;;5099138;27;19934;-80
2022/06/22 07:16:22;;;;;;;;;;;22.30;99.90;;;;;;5106377;27;19931;-80
2022/06/22 07:19:26;;;;;;;;;;;22.40;99.90;;;;;;5101537;27;19935;-80
2022/06/22 07:21:55;;;;;;;;;;;22.40;99.90;;;;;;5028208;28;19928;-79
2022/06/22 07:24:26;;;;;;;;;;;21.20;99.90;;;;;;5014606;28;20593;-80
2022/06/22 07:26:52;;;;;;;;;;;22.20;99.90;;;;;;5060359;27;20392;-80
2022/06/22 07:29:17;;;;;;;;;;;22.40;99.90;;;;;;5105208;27;20010;-80
2022/06/22 07:31:47;;;;;;;;;;;22.40;99.90;;;;;;5105586;27;20026;-80
2022/06/22 07:34:15;;;;;;;;;;;22.50;99.90;;;;;;5101135;27;19927;-80
2022/06/22 07:36:45;;;;;;;;;;;21.60;99.90;;;;;;5098207;27;19937;-80
2022/06/22 07:39:10;;;;;;;;;;;21.40;99.90;;;;;;5096573;27;20018;-80
2022/06/22 07:41:36;;;;;;;;;;;22.50;99.90;;;;;;5101079;27;20378;-79
2022/06/22 07:44:04;;;;;;;;;;;22.30;99.90;;;;;;5102461;27;19975;-80
2022/06/22 07:46:33;;;;;;;;;;;22.60;99.90;;;;;;5097239;27;19939;-79
2022/06/22 07:49:05;;;;;;;;;;;22.50;99.90;;;;;;5097939;27;19932;-80
2022/06/22 07:51:35;;;;;;;;;;;23.00;99.90;;;;;;5097456;27;19938;-80
2022/06/22 07:54:24;;;;;;;;;;;22.70;99.90;;;;;;5098445;27;20528;-79
2022/06/22 07:56:54;;;;;;;;;;;23.20;99.90;;;;;;5082449;27;19927;-80
2022/06/22 07:59:40;;;;;;;;;;;23.00;99.90;;;;;;5104772;27;20010;-79
2022/06/22 08:02:16;;;;;;;;;;;22.60;99.90;;;;;;5102012;27;19934;-81
2022/06/22 08:04:45;;;;;;;;;;;22.60;99.90;;;;;;5087854;27;19928;-81
2022/06/22 08:07:13;;;;;;;;;;;23.00;99.90;;;;;;5091690;27;19931;-80
2022/06/22 08:09:54;;;;;;;;;;;22.50;99.90;;;;;;5069000;28;19977;-80
2022/06/22 08:12:26;;;;;;;;;;;22.90;99.90;;;;;;5096781;27;19981;-80
2022/06/22 08:14:54;;;;;;;;;;;23.50;99.90;;;;;;5103898;27;19988;-79
2022/06/22 08:17:34;;;;;;;;;;;23.30;99.90;;;;;;5104226;27;19928;-79
2022/06/22 08:20:00;;;;;;;;;;;23.00;99.90;;;;;;5100821;27;19927;-80
2022/06/22 08:22:26;;;;;;;;;;;22.30;99.90;;;;;;5108227;27;19927;-80
2022/06/22 08:24:58;;;;;;;;;;;22.30;99.90;;;;;;5103049;27;20300;-81
2022/06/22 08:27:25;;;;;;;;;;;23.10;99.90;;;;;;5079386;28;19981;-81
2022/06/22 08:29:51;;;;;;;;;;;23.10;99.90;;;;;;5099984;28;19938;-81
2022/06/22 08:32:27;;;;;;;;;;;23.30;99.90;;;;;;5101449;27;19938;-82
2022/06/22 08:34:54;;;;;;;;;;;23.40;99.90;;;;;;5101268;28;19934;-79
2022/06/22 08:37:23;;;;;;;;;;;23.50;99.90;;;;;;5103131;28;19927;-79
2022/06/22 08:39:52;;;;;;;;;;;23.30;99.90;;;;;;5099154;28;20098;-79
2022/06/22 08:42:24;;;;;;;;;;;23.20;99.90;;;;;;5072367;28;20455;-80
2022/06/22 08:45:08;;;;;;;;;;;23.50;99.90;;;;;;5100028;27;19933;-80
2022/06/22 08:47:40;;;;;;;;;;;23.70;99.90;;;;;;5097692;28;19933;-80
2022/06/22 08:50:24;;;;;;;;;;;23.90;99.90;;;;;;5102579;28;19932;-80
2022/06/22 08:53:07;;;;;;;;;;;23.60;99.90;;;;;;5098340;28;19969;-80
2022/06/22 08:55:51;;;;;;;;;;;23.30;99.90;;;;;;5099412;27;19976;-80
2022/06/22 08:58:34;;;;;;;;;;;23.70;99.90;;;;;;5103678;28;19959;-81
2022/06/22 09:01:20;;;;;;;;;;;23.90;99.90;;;;;;5075621;28;19927;-81
2022/06/22 09:03:52;;;;;;;;;;;23.70;99.90;;;;;;5106296;27;19934;-81
2022/06/22 09:06:21;;;;;;;;;;;24.20;99.90;;;;;;5098743;27;19928;-82
2022/06/22 09:09:05;;;;;;;;;;;24.30;99.90;;;;;;5104272;27;19927;-82
2022/06/22 09:11:34;;;;;;;;;;;24.20;99.90;;;;;;5108023;27;20651;-82
2022/06/22 09:13:59;;;;;;;;;;;24.40;98.30;;;;;;5102909;27;19927;-78
2022/06/22 09:16:34;;;;;;;;;;;23.70;99.90;;;;;;5106599;27;19934;-79
2022/06/22 09:18:59;;;;;;;;;;;23.40;98.70;;;;;;5087527;27;20688;-79
2022/06/22 09:21:37;;;;;;;;;;;23.60;99.90;;;;;;5103526;27;20466;-80
2022/06/22 09:24:11;;;;;;;;;;;23.70;99.50;;;;;;5100376;27;19928;-80
2022/06/22 09:26:49;;;;;;;;;;;24.40;99.90;;;;;;5076100;27;19931;-80
2022/06/22 09:29:39;;;;;;;;;;;24.50;97.10;;;;;;5102675;27;20653;-78
2022/06/22 09:32:24;;;;;;;;;;;24.50;97.10;;;;;;5104698;27;19932;-80
2022/06/22 09:35:07;;;;;;;;;;;24.90;98.50;;;;;;5100537;27;19927;-81
2022/06/22 09:37:34;;;;;;;;;;;24.30;96.70;;;;;;5101706;27;20425;-82
2022/06/22 09:40:00;;;;;;;;;;;24.10;97.90;;;;;;5103608;27;19927;-79
2022/06/22 09:42:25;;;;;;;;;;;24.50;96.70;;;;;;5104982;27;19932;-80
2022/06/22 09:45:11;;;;;;;;;;;24.60;94.70;;;;;;5107639;27;19938;-81
2022/06/22 09:47:55;;;;;;;;;;;25.20;98.10;;;;;;5079522;27;20385;-81
2022/06/22 09:50:53;;;;;;;;;;;24.90;97.50;;;;;;5101988;27;20895;-79
2022/06/22 09:53:28;;;;;;;;;;;24.00;93.40;;;;;;5060123;27;19967;-80
2022/06/22 09:58:38;;;;;;;;;;;24.50;93.00;;;;;;5096601;27;20358;-80
2022/06/22 10:01:07;;;;;;;;;;;24.80;94.10;;;;;;5084022;27;19927;-81
2022/06/22 10:03:50;;;;;;;;;;;25.00;95.30;;;;;;5103115;27;19935;-80
2022/06/22 10:06:25;;;;;;;;;;;24.50;86.70;;;;;;5104108;27;19929;-81
2022/06/22 10:09:09;;;;;;;;;;;24.90;93.60;;;;;;5104006;27;19932;-80
2022/06/22 10:11:38;;;;;;;;;;;24.90;91.30;;;;;;5104691;27;19931;-80
2022/06/22 10:14:17;;;;;;;;;;;25.40;93.10;;;;;;5100508;27;19992;-81
2022/06/22 10:16:58;;;;;;;;;;;24.80;90.80;;;;;;5101247;27;19927;-81
2022/06/22 10:19:29;;;;;;;;;;;25.40;92.80;;;;;;5105705;27;20090;-82
2022/06/22 10:21:58;;;;;;;;;;;26.00;92.90;;;;;;5103591;27;19935;-81
2022/06/22 10:24:39;;;;;;;;;;;25.60;92.20;;;;;;5101076;27;19974;-80
2022/06/22 10:27:07;;;;;;;;;;;25.60;91.70;;;;;;5100774;27;20441;-80
2022/06/22 10:29:52;;;;;;;;;;;25.40;92.20;;;;;;5104538;27;20006;-80
2022/06/22 10:32:27;;;;;;;;;;;25.60;85.30;;;;;;5099775;27;19939;-79
2022/06/22 10:34:59;;;;;;;;;;;24.90;89.10;;;;;;5100376;27;19957;-80
2022/06/22 10:37:43;;;;;;;;;;;24.90;91.30;;;;;;5101453;27;20330;-81
2022/06/22 10:46:00;;;;;;;;;;;25.00;87.20;;;;;;5100337;27;19976;-80
2022/06/22 10:48:45;;;;;;;;;;;25.60;90.80;;;;;;5098059;27;19927;-81
2022/06/22 10:51:17;;;;;;;;;;;25.70;87.10;;;;;;5101715;27;20734;-81
2022/06/22 10:53:57;;;;;;;;;;;25.30;86.90;;;;;;5104729;27;20018;-80
2022/06/22 10:56:38;;;;;;;;;;;25.80;86.50;;;;;;5099447;27;19933;-80
2022/06/22 10:59:04;;;;;;;;;;;26.10;79.10;;;;;;5100315;27;19927;-81
2022/06/22 11:01:41;;;;;;;;;;;25.90;77.50;;;;;;5101698;27;19991;-81
2022/06/22 11:04:25;;;;;;;;;;;25.20;84.50;;;;;;5097294;27;19938;-80
2022/06/22 11:07:06;;;;;;;;;;;25.20;85.60;;;;;;5103511;27;19932;-80
2022/06/22 11:10:00;;;;;;;;;;;26.00;88.20;;;;;;5079379;27;19928;-81
2022/06/22 11:12:27;;;;;;;;;;;25.70;79.50;;;;;;5095616;27;19934;-81
2022/06/22 11:15:11;;;;;;;;;;;25.10;75.70;;;;;;5102878;27;19989;-82
2022/06/22 11:17:49;;;;;;;;;;;26.10;82.80;;;;;;5101922;27;20027;-81
2022/06/22 11:20:33;;;;;;;;;;;25.80;81.60;;;;;;5094956;27;19939;-81
2022/06/22 11:23:03;;;;;;;;;;;26.30;79.90;;;;;;5105052;27;19927;-81
2022/06/22 11:31:31;;;;;;;;;;;26.60;82.00;;;;;;5101265;27;19928;-81
2022/06/22 11:34:05;;;;;;;;;;;25.80;82.90;;;;;;5099425;27;19928;-80
2022/06/22 11:36:31;;;;;;;;;;;26.60;84.70;;;;;;5103893;27;19932;-80
2022/06/22 11:39:06;;;;;;;;;;;26.10;76.10;;;;;;5101930;27;19935;-82
2022/06/22 11:41:43;;;;;;;;;;;25.70;79.50;;;;;;5102869;27;20026;-80
2022/06/22 11:44:21;;;;;;;;;;;26.00;79.80;;;;;;5095535;27;19935;-80
2022/06/22 11:46:55;;;;;;;;;;;26.70;83.40;;;;;;5101572;27;19962;-82
2022/06/22 11:49:40;;;;;;;;;;;26.00;80.10;;;;;;5101765;27;19995;-80
2022/06/22 11:52:19;;;;;;;;;;;25.80;76.60;;;;;;5100317;27;19927;-80
2022/06/22 11:54:48;;;;;;;;;;;24.30;71.90;;;;;;5105920;27;19974;-81
2022/06/22 11:57:25;;;;;;;;;;;24.80;74.40;;;;;;5105706;27;19967;-81
2022/06/22 12:00:05;;;;;;;;;;;25.50;81.10;;;;;;5104553;27;20039;-81
2022/06/22 12:02:40;;;;;;;;;;;26.00;80.50;;;;;;5105354;27;20690;-81
2022/06/22 12:05:05;;;;;;;;;;;25.60;75.10;;;;;;5098494;27;19953;-81
2022/06/22 12:07:37;;;;;;;;;;;25.70;76.80;;;;;;5102944;27;19931;-82
2022/06/22 12:10:23;;;;;;;;;;;25.20;71.70;;;;;;5102115;27;19958;-81
2022/06/22 12:13:11;;;;;;;;;;;25.60;79.20;;;;;;5098751;27;20005;-81
2022/06/22 12:15:46;;;;;;;;;;;26.10;77.40;;;;;;5097931;28;19970;-81
2022/06/22 12:18:24;;;;;;;;;;;26.20;75.30;;;;;;5100507;27;20273;-80
2022/06/22 12:21:09;;;;;;;;;;;26.30;75.40;;;;;;5082696;27;19931;-82
2022/06/22 12:23:41;;;;;;;;;;;26.60;74.60;;;;;;5100949;28;19933;-81
2022/06/22 12:26:15;;;;;;;;;;;27.30;80.40;;;;;;5099008;28;19935;-80
2022/06/22 12:29:00;;;;;;;;;;;27.30;77.50;;;;;;5099973;27;19932;-79
2022/06/22 12:31:30;;;;;;;;;;;25.70;71.50;;;;;;5100729;28;19928;-82
2022/06/22 12:34:06;;;;;;;;;;;25.90;71.40;;;;;;5101286;28;20038;-81
2022/06/22 12:36:35;;;;;;;;;;;25.10;70.20;;;;;;5097429;27;19924;-81
2022/06/22 12:39:09;;;;;;;;;;;25.10;74.40;;;;;;5074627;27;19927;-81
2022/06/22 12:41:42;;;;;;;;;;;24.60;74.00;;;;;;5088513;27;19954;-81
2022/06/22 12:44:23;;;;;;;;;;;24.50;73.10;;;;;;5100475;27;19927;-79
2022/06/22 12:46:57;;;;;;;;;;;25.20;80.40;;;;;;5101954;27;20504;-80
2022/06/22 12:49:46;;;;;;;;;;;26.20;76.90;;;;;;5102068;27;19950;-81
2022/06/22 12:52:19;;;;;;;;;;;26.50;74.30;;;;;;5076386;27;19931;-80
2022/06/22 12:54:59;;;;;;;;;;;25.40;71.70;;;;;;5102920;27;19929;-81
2022/06/22 12:57:30;;;;;;;;;;;26.40;78.30;;;;;;5103535;27;19934;-81
2022/06/22 13:00:03;;;;;;;;;;;27.00;71.90;;;;;;5082569;27;19934;-82
2022/06/22 13:02:30;;;;;;;;;;;27.40;73.60;;;;;;5101636;27;19995;-82
2022/06/22 13:05:00;;;;;;;;;;;26.80;69.70;;;;;;5101333;27;19971;-80
2022/06/22 13:07:26;;;;;;;;;;;27.10;74.10;;;;;;5101429;27;20357;-80
2022/06/22 13:09:52;;;;;;;;;;;26.80;71.80;;;;;;5097098;27;19927;-81
2022/06/22 13:12:20;;;;;;;;;;;26.80;70.00;;;;;;5086967;27;20368;-82
2022/06/22 13:14:49;;;;;;;;;;;27.30;74.20;;;;;;5080868;27;20023;-81
2022/06/22 13:17:30;;;;;;;;;;;27.60;76.80;;;;;;5078631;27;20038;-81
2022/06/22 13:20:16;;;;;;;;;;;27.60;75.00;;;;;;5075477;27;19928;-81
2022/06/22 13:22:48;;;;;;;;;;;27.60;75.80;;;;;;5041030;27;19938;-80
2022/06/22 13:25:37;;;;;;;;;;;27.20;73.30;;;;;;5076833;27;20709;-81
2022/06/22 13:28:17;;;;;;;;;;;27.30;73.90;;;;;;5086121;27;19930;-81
2022/06/22 13:30:55;;;;;;;;;;;27.00;72.90;;;;;;5084614;27;19934;-81
2022/06/22 13:33:39;;;;;;;;;;;27.50;71.10;;;;;;5080990;27;19928;-81
2022/06/22 13:36:12;;;;;;;;;;;27.80;72.50;;;;;;5078451;27;19927;-79
2022/06/22 13:39:09;;;;;;;;;;;28.10;72.80;;;;;;5079700;27;19974;-81
2022/06/22 13:41:46;;;;;;;;;;;27.70;72.50;;;;;;4990043;27;19929;-81
2022/06/22 13:44:15;;;;;;;;;;;28.50;77.00;;;;;;5082354;27;19928;-81
2022/06/22 13:46:59;;;;;;;;;;;27.50;71.60;;;;;;5084126;27;19935;-81
2022/06/22 13:49:25;;;;;;;;;;;28.20;72.20;;;;;;5080008;27;19938;-81
2022/06/22 13:51:54;;;;;;;;;;;28.00;70.10;;;;;;5083486;27;19931;-81
2022/06/22 13:54:31;;;;;;;;;;;28.50;72.50;;;;;;5067623;27;19977;-80
2022/06/22 13:57:09;;;;;;;;;;;27.60;72.10;;;;;;5067828;27;19928;-81
2022/06/22 13:59:43;;;;;;;;;;;27.40;66.20;;;;;;5065507;27;20212;-82
2022/06/22 14:02:28;;;;;;;;;;;28.20;73.30;;;;;;5069256;27;19934;-80
2022/06/22 14:05:12;;;;;;;;;;;28.40;75.50;;;;;;5067233;27;20238;-82
2022/06/22 14:07:44;;;;;;;;;;;27.70;69.00;;;;;;5070538;27;19927;-82
2022/06/22 14:10:11;;;;;;;;;;;28.10;75.40;;;;;;5081122;27;19982;-81
2022/06/22 14:12:44;;;;;;;;;;;28.30;73.10;;;;;;5077347;27;19938;-81
2022/06/22 14:15:13;;;;;;;;;;;27.40;66.70;;;;;;5066215;27;21155;-81
2022/06/22 14:17:41;;;;;;;;;;;27.10;66.60;;;;;;5073351;27;19933;-81
2022/06/22 14:20:16;;;;;;;;;;;27.50;73.30;;;;;;5076353;27;20351;-82
2022/06/22 14:22:46;;;;;;;;;;;27.70;70.20;;;;;;5074735;27;19997;-81
2022/06/22 14:25:14;;;;;;;;;;;27.30;71.20;;;;;;5064304;27;19932;-82
2022/06/22 14:27:58;;;;;;;;;;;27.90;73.20;;;;;;5063888;27;19941;-81
2022/06/22 14:30:30;;;;;;;;;;;28.20;74.70;;;;;;5058721;27;19973;-80
2022/06/22 14:33:01;;;;;;;;;;;28.30;75.60;;;;;;5061481;27;19927;-81
2022/06/22 14:35:30;;;;;;;;;;;28.40;73.80;;;;;;5059889;27;19935;-80
2022/06/22 14:37:55;;;;;;;;;;;28.00;73.10;;;;;;5061159;27;19927;-81
2022/06/22 14:40:33;;;;;;;;;;;26.70;67.80;;;;;;5060612;27;19932;-81
2022/06/22 14:43:13;;;;;;;;;;;27.60;72.50;;;;;;5069604;27;19967;-82
2022/06/22 14:45:44;;;;;;;;;;;27.50;68.30;;;;;;5064446;27;20320;-81
2022/06/22 14:48:13;;;;;;;;;;;27.60;71.80;;;;;;5073189;27;19927;-82
2022/06/22 14:50:45;;;;;;;;;;;27.40;67.50;;;;;;5097176;27;20849;-81
2022/06/22 14:53:11;;;;;;;;;;;27.30;70.50;;;;;;5096537;27;20759;-80
2022/06/22 14:55:38;;;;;;;;;;;27.80;73.60;;;;;;5101814;27;19932;-81
2022/06/22 14:58:12;;;;;;;;;;;27.00;65.70;;;;;;5096664;27;19987;-81
2022/06/22 15:00:44;;;;;;;;;;;26.50;70.50;;;;;;5096171;27;20036;-81
2022/06/22 15:03:17;;;;;;;;;;;27.00;74.30;;;;;;5098025;27;20097;-79
2022/06/22 15:05:55;;;;;;;;;;;26.40;68.20;;;;;;5101349;27;19996;-81
2022/06/22 15:08:24;;;;;;;;;;;27.20;72.90;;;;;;5098062;27;21005;-81
2022/06/22 15:10:49;;;;;;;;;;;27.00;72.60;;;;;;5098140;27;20444;-81
2022/06/22 15:13:25;;;;;;;;;;;27.30;71.40;;;;;;5103291;27;19933;-81